This is the latest recevied weather packets stored in our database for station/object SQ5AAG-2. If no packets are shown the sender has not sent any weather packets the latest 10 day(s).
| Time | Temp. | Humidity | Pressure | Rain* | Wind** | Luminosity | Snow |
|---|---|---|---|---|---|---|---|
| 1787817689 | 20.56° C | 56% | 1009.5 hPa | 0 mm | - | - | - |
| 1787817391 | 20.56° C | 56% | 1009.4 hPa | 0 mm | - | - | - |
| 1787817089 | 20.56° C | 58% | 1009.4 hPa | 0 mm | - | - | - |
| 1787817021 | 17.22° C | 67% | 1009.4 hPa | 0 mm | - | - | - |
| 1787816788 | 20.56° C | 57% | 1009.4 hPa | 0 mm | - | - | - |
| 1787816649 | 17.22° C | 67% | 1009.5 hPa | 0 mm | - | - | - |
| 1787816488 | 20.56° C | 59% | 1009.3 hPa | 0 mm | - | - | - |
| 1787816188 | 20° C | 59% | 1009.2 hPa | 0 mm | - | - | - |
| 1787815888 | 20° C | 60% | 1009.4 hPa | 0 mm | - | - | - |
| 1787815852 | 17.22° C | 66% | 1009.5 hPa | 0 mm | - | - | - |
| 1787815587 | 20° C | 61% | 1009.3 hPa | 0 mm | - | - | - |
| 1787815433 | 17.22° C | 66% | 1009.4 hPa | 0 mm | - | - | - |
| 1787815289 | 19.44° C | 63% | 1009.5 hPa | 0 mm | - | - | - |
| 1787815025 | 17.78° C | 66% | 1009.4 hPa | 0 mm | - | - | - |
| 1787814993 | 19.44° C | 63% | 1009.4 hPa | 0 mm | - | - | - |
| 1787814686 | 18.89° C | 64% | 1009.3 hPa | 0 mm | - | - | - |
| 1787814684 | 17.78° C | 64% | 1009.5 hPa | 0 mm | - | - | - |
| 1787814386 | 18.89° C | 65% | 1009.4 hPa | 0 mm | - | - | - |
| 1787814245 | 18.33° C | 63% | 1009.4 hPa | 0 mm | - | - | - |
| 1787814086 | 18.33° C | 65% | 1009.6 hPa | 0 mm | - | - | - |
| 1787813786 | 17.78° C | 66% | 1009.4 hPa | 0 mm | - | - | - |
| 1787813781 | 19.44° C | 62% | 1009.4 hPa | 0 mm | - | - | - |
| 1787813485 | 17.78° C | 66% | 1009.4 hPa | 0 mm | - | - | - |
| 1787813418 | 19.44° C | 63% | 1009.3 hPa | 0 mm | - | - | - |
| 1787813308 | 17.78° C | 67% | 1009.5 hPa | 0 mm | - | - | - |
* Rain latest hour (hover to see other rain measurements)
** Current wind speed in m/s (hover to see current wind gust speed)